sensor_id;sensor_type;location;lat;lon;timestamp;P1;durP1;ratioP1;P2;durP2;ratioP2
29202;SDS011;16245;51.170;4.884;2023-01-24T00:00:45;29.67;;;21.02;;
29202;SDS011;16245;51.170;4.884;2023-01-24T00:03:10;29.00;;;20.30;;
29202;SDS011;16245;51.170;4.884;2023-01-24T00:05:40;28.20;;;20.92;;
29202;SDS011;16245;51.170;4.884;2023-01-24T00:08:09;27.55;;;21.08;;
29202;SDS011;16245;51.170;4.884;2023-01-24T00:10:37;28.88;;;20.48;;
29202;SDS011;16245;51.170;4.884;2023-01-24T00:13:03;24.80;;;19.58;;
29202;SDS011;16245;51.170;4.884;2023-01-24T00:15:30;29.67;;;21.20;;
29202;SDS011;16245;51.170;4.884;2023-01-24T00:17:57;26.48;;;20.40;;
29202;SDS011;16245;51.170;4.884;2023-01-24T00:20:23;27.60;;;21.00;;
29202;SDS011;16245;51.170;4.884;2023-01-24T00:22:50;30.08;;;21.38;;
29202;SDS011;16245;51.170;4.884;2023-01-24T00:25:15;26.98;;;19.48;;
29202;SDS011;16245;51.170;4.884;2023-01-24T00:27:41;25.95;;;20.80;;
29202;SDS011;16245;51.170;4.884;2023-01-24T00:30:07;28.13;;;20.02;;
29202;SDS011;16245;51.170;4.884;2023-01-24T00:32:34;31.00;;;20.35;;
29202;SDS011;16245;51.170;4.884;2023-01-24T00:35:00;27.13;;;20.88;;
29202;SDS011;16245;51.170;4.884;2023-01-24T00:37:25;27.35;;;21.02;;
29202;SDS011;16245;51.170;4.884;2023-01-24T00:39:51;25.20;;;19.50;;
29202;SDS011;16245;51.170;4.884;2023-01-24T00:42:17;27.40;;;20.83;;
29202;SDS011;16245;51.170;4.884;2023-01-24T00:44:42;25.00;;;18.63;;
29202;SDS011;16245;51.170;4.884;2023-01-24T00:47:08;26.27;;;19.05;;
29202;SDS011;16245;51.170;4.884;2023-01-24T00:49:34;25.98;;;18.60;;
29202;SDS011;16245;51.170;4.884;2023-01-24T00:52:00;27.33;;;19.60;;
29202;SDS011;16245;51.170;4.884;2023-01-24T00:54:25;28.30;;;19.73;;
29202;SDS011;16245;51.170;4.884;2023-01-24T00:56:51;25.60;;;17.98;;
29202;SDS011;16245;51.170;4.884;2023-01-24T00:59:16;27.63;;;19.52;;
29202;SDS011;16245;51.170;4.884;2023-01-24T01:01:42;26.73;;;19.10;;
29202;SDS011;16245;51.170;4.884;2023-01-24T01:04:08;26.17;;;18.92;;
29202;SDS011;16245;51.170;4.884;2023-01-24T01:06:34;23.67;;;19.38;;
29202;SDS011;16245;51.170;4.884;2023-01-24T01:09:00;26.33;;;19.88;;
29202;SDS011;16245;51.170;4.884;2023-01-24T01:11:27;27.02;;;19.60;;
29202;SDS011;16245;51.170;4.884;2023-01-24T01:13:56;26.42;;;18.30;;
29202;SDS011;16245;51.170;4.884;2023-01-24T01:16:22;25.45;;;19.20;;
29202;SDS011;16245;51.170;4.884;2023-01-24T01:18:49;26.52;;;19.73;;
29202;SDS011;16245;51.170;4.884;2023-01-24T01:21:19;27.05;;;18.88;;
29202;SDS011;16245;51.170;4.884;2023-01-24T01:23:45;28.40;;;19.38;;
29202;SDS011;16245;51.170;4.884;2023-01-24T01:26:15;25.85;;;19.08;;
29202;SDS011;16245;51.170;4.884;2023-01-24T01:28:42;25.45;;;19.85;;
29202;SDS011;16245;51.170;4.884;2023-01-24T01:31:08;26.33;;;19.27;;
29202;SDS011;16245;51.170;4.884;2023-01-24T01:33:34;26.08;;;18.05;;
29202;SDS011;16245;51.170;4.884;2023-01-24T01:36:00;28.70;;;19.85;;
29202;SDS011;16245;51.170;4.884;2023-01-24T01:38:26;28.58;;;19.98;;
29202;SDS011;16245;51.170;4.884;2023-01-24T01:40:52;25.20;;;18.67;;
29202;SDS011;16245;51.170;4.884;2023-01-24T01:43:20;27.27;;;18.83;;
29202;SDS011;16245;51.170;4.884;2023-01-24T01:45:48;23.85;;;18.00;;
29202;SDS011;16245;51.170;4.884;2023-01-24T01:54:01;22.92;;;17.60;;
29202;SDS011;16245;51.170;4.884;2023-01-24T01:56:38;27.02;;;17.65;;
29202;SDS011;16245;51.170;4.884;2023-01-24T02:01:55;23.83;;;16.67;;
29202;SDS011;16245;51.170;4.884;2023-01-24T02:04:30;25.65;;;18.10;;
29202;SDS011;16245;51.170;4.884;2023-01-24T02:09:37;25.13;;;18.02;;
29202;SDS011;16245;51.170;4.884;2023-01-24T02:12:11;23.92;;;16.77;;
29202;SDS011;16245;51.170;4.884;2023-01-24T02:14:44;22.48;;;16.45;;
29202;SDS011;16245;51.170;4.884;2023-01-24T02:17:33;23.90;;;17.60;;
29202;SDS011;16245;51.170;4.884;2023-01-24T02:22:51;25.50;;;17.08;;
29202;SDS011;16245;51.170;4.884;2023-01-24T02:27:54;24.38;;;17.67;;
29202;SDS011;16245;51.170;4.884;2023-01-24T02:30:20;24.73;;;17.23;;
29202;SDS011;16245;51.170;4.884;2023-01-24T02:32:46;24.92;;;16.67;;
29202;SDS011;16245;51.170;4.884;2023-01-24T02:35:22;24.20;;;17.42;;
29202;SDS011;16245;51.170;4.884;2023-01-24T02:37:52;23.65;;;16.08;;
29202;SDS011;16245;51.170;4.884;2023-01-24T02:40:19;22.38;;;16.05;;
29202;SDS011;16245;51.170;4.884;2023-01-24T02:42:45;24.50;;;17.17;;
29202;SDS011;16245;51.170;4.884;2023-01-24T02:47:51;22.05;;;15.82;;
29202;SDS011;16245;51.170;4.884;2023-01-24T02:50:20;20.67;;;15.48;;
29202;SDS011;16245;51.170;4.884;2023-01-24T02:52:47;23.23;;;16.35;;
29202;SDS011;16245;51.170;4.884;2023-01-24T02:55:32;21.00;;;15.27;;
29202;SDS011;16245;51.170;4.884;2023-01-24T02:57:59;20.63;;;15.38;;
29202;SDS011;16245;51.170;4.884;2023-01-24T03:00:38;21.30;;;14.63;;
29202;SDS011;16245;51.170;4.884;2023-01-24T03:03:05;21.77;;;15.60;;
29202;SDS011;16245;51.170;4.884;2023-01-24T03:05:32;22.05;;;15.52;;
29202;SDS011;16245;51.170;4.884;2023-01-24T03:08:18;19.58;;;15.15;;
29202;SDS011;16245;51.170;4.884;2023-01-24T03:10:44;20.67;;;14.95;;
29202;SDS011;16245;51.170;4.884;2023-01-24T03:13:11;22.38;;;15.85;;
29202;SDS011;16245;51.170;4.884;2023-01-24T03:15:58;19.85;;;14.15;;
29202;SDS011;16245;51.170;4.884;2023-01-24T03:18:42;21.85;;;15.23;;
29202;SDS011;16245;51.170;4.884;2023-01-24T03:21:26;22.55;;;14.45;;
29202;SDS011;16245;51.170;4.884;2023-01-24T03:24:10;21.27;;;15.35;;
29202;SDS011;16245;51.170;4.884;2023-01-24T03:26:55;22.40;;;16.30;;
29202;SDS011;16245;51.170;4.884;2023-01-24T03:29:39;22.27;;;15.90;;
29202;SDS011;16245;51.170;4.884;2023-01-24T03:32:23;20.08;;;14.70;;
29202;SDS011;16245;51.170;4.884;2023-01-24T03:35:07;22.92;;;16.30;;
29202;SDS011;16245;51.170;4.884;2023-01-24T03:37:33;22.55;;;15.73;;
29202;SDS011;16245;51.170;4.884;2023-01-24T03:40:17;21.98;;;16.00;;
29202;SDS011;16245;51.170;4.884;2023-01-24T03:42:43;21.95;;;15.30;;
29202;SDS011;16245;51.170;4.884;2023-01-24T03:45:16;22.25;;;15.82;;
29202;SDS011;16245;51.170;4.884;2023-01-24T03:47:55;21.85;;;16.23;;
29202;SDS011;16245;51.170;4.884;2023-01-24T03:50:27;21.80;;;15.73;;
29202;SDS011;16245;51.170;4.884;2023-01-24T03:53:14;21.35;;;15.40;;
29202;SDS011;16245;51.170;4.884;2023-01-24T03:55:40;21.77;;;16.40;;
29202;SDS011;16245;51.170;4.884;2023-01-24T03:58:06;24.15;;;17.00;;
29202;SDS011;16245;51.170;4.884;2023-01-24T04:00:33;25.55;;;17.75;;
29202;SDS011;16245;51.170;4.884;2023-01-24T04:03:00;22.42;;;17.17;;
29202;SDS011;16245;51.170;4.884;2023-01-24T04:05:26;23.08;;;17.42;;
29202;SDS011;16245;51.170;4.884;2023-01-24T04:07:52;23.15;;;16.98;;
29202;SDS011;16245;51.170;4.884;2023-01-24T04:10:18;26.27;;;18.92;;
29202;SDS011;16245;51.170;4.884;2023-01-24T04:12:44;24.52;;;17.48;;
29202;SDS011;16245;51.170;4.884;2023-01-24T04:15:18;26.23;;;18.38;;
29202;SDS011;16245;51.170;4.884;2023-01-24T04:17:46;25.02;;;18.10;;
29202;SDS011;16245;51.170;4.884;2023-01-24T04:20:12;25.77;;;17.67;;
29202;SDS011;16245;51.170;4.884;2023-01-24T04:22:38;25.50;;;17.77;;
29202;SDS011;16245;51.170;4.884;2023-01-24T04:25:05;26.58;;;18.73;;
29202;SDS011;16245;51.170;4.884;2023-01-24T04:27:31;23.23;;;17.40;;
29202;SDS011;16245;51.170;4.884;2023-01-24T04:29:56;23.45;;;16.77;;
29202;SDS011;16245;51.170;4.884;2023-01-24T04:32:22;23.60;;;17.73;;
29202;SDS011;16245;51.170;4.884;2023-01-24T04:34:48;27.13;;;18.75;;
29202;SDS011;16245;51.170;4.884;2023-01-24T04:37:13;24.70;;;17.77;;
29202;SDS011;16245;51.170;4.884;2023-01-24T04:39:39;24.33;;;17.50;;
29202;SDS011;16245;51.170;4.884;2023-01-24T04:42:04;23.17;;;17.63;;
29202;SDS011;16245;51.170;4.884;2023-01-24T04:44:31;26.23;;;19.05;;
29202;SDS011;16245;51.170;4.884;2023-01-24T04:46:58;25.88;;;18.30;;
29202;SDS011;16245;51.170;4.884;2023-01-24T04:49:25;26.55;;;18.48;;
29202;SDS011;16245;51.170;4.884;2023-01-24T04:51:50;24.35;;;18.52;;
29202;SDS011;16245;51.170;4.884;2023-01-24T04:54:16;25.77;;;19.02;;
29202;SDS011;16245;51.170;4.884;2023-01-24T04:56:42;26.38;;;18.02;;
29202;SDS011;16245;51.170;4.884;2023-01-24T04:59:10;24.70;;;18.83;;
29202;SDS011;16245;51.170;4.884;2023-01-24T05:01:36;24.08;;;17.88;;
29202;SDS011;16245;51.170;4.884;2023-01-24T05:04:03;24.67;;;18.13;;
29202;SDS011;16245;51.170;4.884;2023-01-24T05:06:29;30.20;;;20.23;;
29202;SDS011;16245;51.170;4.884;2023-01-24T05:08:56;26.45;;;19.67;;
29202;SDS011;16245;51.170;4.884;2023-01-24T05:11:22;29.40;;;21.23;;
29202;SDS011;16245;51.170;4.884;2023-01-24T05:13:48;26.67;;;19.58;;
29202;SDS011;16245;51.170;4.884;2023-01-24T05:16:14;30.63;;;20.38;;
29202;SDS011;16245;51.170;4.884;2023-01-24T05:18:40;27.10;;;19.38;;
29202;SDS011;16245;51.170;4.884;2023-01-24T05:21:15;29.27;;;20.67;;
29202;SDS011;16245;51.170;4.884;2023-01-24T05:23:43;29.50;;;21.08;;
29202;SDS011;16245;51.170;4.884;2023-01-24T05:26:12;28.73;;;21.30;;
29202;SDS011;16245;51.170;4.884;2023-01-24T05:28:38;30.20;;;20.63;;
29202;SDS011;16245;51.170;4.884;2023-01-24T05:31:04;30.25;;;21.95;;
29202;SDS011;16245;51.170;4.884;2023-01-24T05:33:34;27.77;;;21.20;;
29202;SDS011;16245;51.170;4.884;2023-01-24T05:36:02;30.02;;;21.65;;
29202;SDS011;16245;51.170;4.884;2023-01-24T05:38:30;28.48;;;20.40;;
29202;SDS011;16245;51.170;4.884;2023-01-24T05:41:00;29.67;;;20.80;;
29202;SDS011;16245;51.170;4.884;2023-01-24T05:43:27;33.95;;;22.30;;
29202;SDS011;16245;51.170;4.884;2023-01-24T05:45:57;29.65;;;20.92;;
29202;SDS011;16245;51.170;4.884;2023-01-24T05:48:27;31.45;;;20.48;;
29202;SDS011;16245;51.170;4.884;2023-01-24T05:51:06;30.13;;;21.38;;
29202;SDS011;16245;51.170;4.884;2023-01-24T05:53:35;32.53;;;21.42;;
29202;SDS011;16245;51.170;4.884;2023-01-24T05:56:03;29.35;;;21.02;;
29202;SDS011;16245;51.170;4.884;2023-01-24T05:58:35;32.22;;;22.48;;
29202;SDS011;16245;51.170;4.884;2023-01-24T06:01:12;32.88;;;21.88;;
29202;SDS011;16245;51.170;4.884;2023-01-24T06:03:48;30.05;;;21.92;;
29202;SDS011;16245;51.170;4.884;2023-01-24T06:06:16;29.15;;;21.30;;
29202;SDS011;16245;51.170;4.884;2023-01-24T06:08:43;35.63;;;24.45;;
29202;SDS011;16245;51.170;4.884;2023-01-24T06:11:13;33.70;;;24.65;;
29202;SDS011;16245;51.170;4.884;2023-01-24T06:13:44;31.25;;;23.25;;
29202;SDS011;16245;51.170;4.884;2023-01-24T06:16:11;34.00;;;24.33;;
29202;SDS011;16245;51.170;4.884;2023-01-24T06:18:48;30.77;;;22.00;;
29202;SDS011;16245;51.170;4.884;2023-01-24T06:21:16;33.50;;;23.90;;
29202;SDS011;16245;51.170;4.884;2023-01-24T06:24:04;32.75;;;23.13;;
29202;SDS011;16245;51.170;4.884;2023-01-24T06:26:30;33.70;;;23.30;;
29202;SDS011;16245;51.170;4.884;2023-01-24T06:28:56;32.75;;;22.65;;
29202;SDS011;16245;51.170;4.884;2023-01-24T06:31:29;32.60;;;23.38;;
29202;SDS011;16245;51.170;4.884;2023-01-24T06:39:32;39.10;;;25.33;;
29202;SDS011;16245;51.170;4.884;2023-01-24T06:41:59;36.35;;;25.75;;
29202;SDS011;16245;51.170;4.884;2023-01-24T06:44:25;36.95;;;26.40;;
29202;SDS011;16245;51.170;4.884;2023-01-24T06:46:51;35.50;;;25.58;;
29202;SDS011;16245;51.170;4.884;2023-01-24T06:49:17;33.38;;;24.48;;
29202;SDS011;16245;51.170;4.884;2023-01-24T06:51:48;34.20;;;23.73;;
29202;SDS011;16245;51.170;4.884;2023-01-24T06:54:16;32.80;;;23.33;;
29202;SDS011;16245;51.170;4.884;2023-01-24T06:56:42;33.42;;;24.50;;
29202;SDS011;16245;51.170;4.884;2023-01-24T06:59:08;31.98;;;23.20;;
29202;SDS011;16245;51.170;4.884;2023-01-24T07:01:34;34.83;;;24.65;;
29202;SDS011;16245;51.170;4.884;2023-01-24T07:03:59;33.50;;;23.70;;
29202;SDS011;16245;51.170;4.884;2023-01-24T07:06:25;31.85;;;24.02;;
29202;SDS011;16245;51.170;4.884;2023-01-24T07:08:51;34.40;;;24.83;;
29202;SDS011;16245;51.170;4.884;2023-01-24T07:11:18;33.05;;;23.92;;
29202;SDS011;16245;51.170;4.884;2023-01-24T07:13:43;34.10;;;23.83;;
29202;SDS011;16245;51.170;4.884;2023-01-24T07:16:09;32.40;;;23.50;;
29202;SDS011;16245;51.170;4.884;2023-01-24T07:18:35;31.60;;;23.70;;
29202;SDS011;16245;51.170;4.884;2023-01-24T07:21:04;34.17;;;25.05;;
29202;SDS011;16245;51.170;4.884;2023-01-24T07:23:33;34.08;;;25.38;;
29202;SDS011;16245;51.170;4.884;2023-01-24T07:25:59;32.90;;;24.65;;
29202;SDS011;16245;51.170;4.884;2023-01-24T07:28:26;32.70;;;24.35;;
29202;SDS011;16245;51.170;4.884;2023-01-24T07:30:52;34.13;;;24.95;;
29202;SDS011;16245;51.170;4.884;2023-01-24T07:33:18;33.42;;;24.63;;
29202;SDS011;16245;51.170;4.884;2023-01-24T07:35:44;31.90;;;23.65;;
29202;SDS011;16245;51.170;4.884;2023-01-24T07:38:10;31.55;;;23.13;;
29202;SDS011;16245;51.170;4.884;2023-01-24T07:40:39;31.70;;;22.92;;
29202;SDS011;16245;51.170;4.884;2023-01-24T07:43:05;29.35;;;23.27;;
29202;SDS011;16245;51.170;4.884;2023-01-24T07:45:31;31.98;;;24.15;;
29202;SDS011;16245;51.170;4.884;2023-01-24T07:48:00;35.13;;;23.88;;
29202;SDS011;16245;51.170;4.884;2023-01-24T07:50:26;32.85;;;23.30;;
29202;SDS011;16245;51.170;4.884;2023-01-24T07:52:52;30.70;;;22.45;;
29202;SDS011;16245;51.170;4.884;2023-01-24T07:55:19;30.60;;;22.23;;
29202;SDS011;16245;51.170;4.884;2023-01-24T07:57:45;28.17;;;21.05;;
29202;SDS011;16245;51.170;4.884;2023-01-24T08:00:12;29.17;;;20.85;;
29202;SDS011;16245;51.170;4.884;2023-01-24T08:02:41;29.58;;;21.42;;
29202;SDS011;16245;51.170;4.884;2023-01-24T08:05:08;26.42;;;19.35;;
29202;SDS011;16245;51.170;4.884;2023-01-24T08:07:34;25.95;;;20.05;;
29202;SDS011;16245;51.170;4.884;2023-01-24T08:10:00;27.38;;;20.55;;
29202;SDS011;16245;51.170;4.884;2023-01-24T08:12:26;27.60;;;19.67;;
29202;SDS011;16245;51.170;4.884;2023-01-24T08:14:51;29.60;;;21.30;;
29202;SDS011;16245;51.170;4.884;2023-01-24T08:17:17;25.65;;;19.17;;
29202;SDS011;16245;51.170;4.884;2023-01-24T08:19:43;26.67;;;19.70;;
29202;SDS011;16245;51.170;4.884;2023-01-24T08:22:09;28.20;;;20.63;;
29202;SDS011;16245;51.170;4.884;2023-01-24T08:24:35;26.58;;;20.13;;
29202;SDS011;16245;51.170;4.884;2023-01-24T08:27:02;27.25;;;19.80;;
29202;SDS011;16245;51.170;4.884;2023-01-24T08:29:28;26.77;;;19.45;;
29202;SDS011;16245;51.170;4.884;2023-01-24T08:31:54;31.08;;;21.30;;
29202;SDS011;16245;51.170;4.884;2023-01-24T08:34:20;26.90;;;19.25;;
29202;SDS011;16245;51.170;4.884;2023-01-24T08:36:46;27.67;;;20.45;;
29202;SDS011;16245;51.170;4.884;2023-01-24T08:39:12;25.13;;;18.45;;
29202;SDS011;16245;51.170;4.884;2023-01-24T08:41:37;27.92;;;19.45;;
29202;SDS011;16245;51.170;4.884;2023-01-24T08:44:04;26.17;;;18.60;;
29202;SDS011;16245;51.170;4.884;2023-01-24T08:46:30;24.75;;;18.73;;
29202;SDS011;16245;51.170;4.884;2023-01-24T08:48:56;30.42;;;20.75;;
29202;SDS011;16245;51.170;4.884;2023-01-24T08:51:31;26.08;;;19.30;;
29202;SDS011;16245;51.170;4.884;2023-01-24T08:53:57;27.40;;;19.80;;
29202;SDS011;16245;51.170;4.884;2023-01-24T08:56:22;28.48;;;20.70;;
29202;SDS011;16245;51.170;4.884;2023-01-24T08:58:48;27.02;;;19.67;;
29202;SDS011;16245;51.170;4.884;2023-01-24T09:01:14;24.63;;;18.92;;
29202;SDS011;16245;51.170;4.884;2023-01-24T09:03:39;27.35;;;20.70;;
29202;SDS011;16245;51.170;4.884;2023-01-24T09:06:05;27.38;;;20.05;;
29202;SDS011;16245;51.170;4.884;2023-01-24T09:08:31;27.05;;;20.13;;
29202;SDS011;16245;51.170;4.884;2023-01-24T09:10:58;26.58;;;20.08;;
29202;SDS011;16245;51.170;4.884;2023-01-24T09:13:24;27.10;;;19.30;;
29202;SDS011;16245;51.170;4.884;2023-01-24T09:15:50;25.25;;;18.73;;
29202;SDS011;16245;51.170;4.884;2023-01-24T09:18:16;26.63;;;19.30;;
29202;SDS011;16245;51.170;4.884;2023-01-24T09:20:42;27.67;;;20.75;;
29202;SDS011;16245;51.170;4.884;2023-01-24T09:23:08;28.15;;;19.98;;
29202;SDS011;16245;51.170;4.884;2023-01-24T09:25:37;26.13;;;19.35;;
29202;SDS011;16245;51.170;4.884;2023-01-24T09:28:03;25.98;;;19.48;;
29202;SDS011;16245;51.170;4.884;2023-01-24T09:30:28;27.80;;;19.83;;
29202;SDS011;16245;51.170;4.884;2023-01-24T09:32:54;24.50;;;19.67;;
29202;SDS011;16245;51.170;4.884;2023-01-24T09:35:20;26.58;;;19.65;;
29202;SDS011;16245;51.170;4.884;2023-01-24T09:37:46;27.17;;;20.00;;
29202;SDS011;16245;51.170;4.884;2023-01-24T09:40:21;23.02;;;18.77;;
29202;SDS011;16245;51.170;4.884;2023-01-24T09:45:56;28.10;;;21.05;;
29202;SDS011;16245;51.170;4.884;2023-01-24T09:48:29;25.00;;;18.77;;
29202;SDS011;16245;51.170;4.884;2023-01-24T09:50:59;29.67;;;20.95;;
29202;SDS011;16245;51.170;4.884;2023-01-24T09:53:32;26.15;;;19.17;;
29202;SDS011;16245;51.170;4.884;2023-01-24T09:56:06;30.08;;;19.85;;
29202;SDS011;16245;51.170;4.884;2023-01-24T09:58:40;25.70;;;18.63;;
29202;SDS011;16245;51.170;4.884;2023-01-24T10:01:11;26.45;;;19.73;;
29202;SDS011;16245;51.170;4.884;2023-01-24T10:03:38;24.70;;;17.85;;
29202;SDS011;16245;51.170;4.884;2023-01-24T10:06:06;28.83;;;19.42;;
29202;SDS011;16245;51.170;4.884;2023-01-24T10:11:27;26.30;;;20.30;;
29202;SDS011;16245;51.170;4.884;2023-01-24T10:24:57;23.10;;;18.70;;
29202;SDS011;16245;51.170;4.884;2023-01-24T10:27:28;28.30;;;19.13;;
29202;SDS011;16245;51.170;4.884;2023-01-24T10:29:58;24.65;;;18.98;;
29202;SDS011;16245;51.170;4.884;2023-01-24T10:32:31;24.58;;;18.55;;
29202;SDS011;16245;51.170;4.884;2023-01-24T10:34:59;26.35;;;20.10;;
29202;SDS011;16245;51.170;4.884;2023-01-24T10:37:37;25.77;;;19.70;;
29202;SDS011;16245;51.170;4.884;2023-01-24T10:40:10;28.00;;;20.15;;
29202;SDS011;16245;51.170;4.884;2023-01-24T10:42:37;28.08;;;19.88;;
29202;SDS011;16245;51.170;4.884;2023-01-24T10:48:04;26.77;;;19.95;;
29202;SDS011;16245;51.170;4.884;2023-01-24T10:50:52;25.42;;;18.50;;
29202;SDS011;16245;51.170;4.884;2023-01-24T10:53:24;25.70;;;19.65;;
29202;SDS011;16245;51.170;4.884;2023-01-24T10:55:56;23.80;;;18.02;;
29202;SDS011;16245;51.170;4.884;2023-01-24T10:58:34;23.50;;;17.88;;
29202;SDS011;16245;51.170;4.884;2023-01-24T11:01:08;25.70;;;19.48;;
29202;SDS011;16245;51.170;4.884;2023-01-24T11:03:44;25.27;;;18.83;;
29202;SDS011;16245;51.170;4.884;2023-01-24T11:09:11;25.38;;;18.80;;
29202;SDS011;16245;51.170;4.884;2023-01-24T11:11:49;23.67;;;17.35;;
29202;SDS011;16245;51.170;4.884;2023-01-24T11:14:19;23.27;;;17.95;;
29202;SDS011;16245;51.170;4.884;2023-01-24T11:16:47;22.10;;;16.20;;
29202;SDS011;16245;51.170;4.884;2023-01-24T11:19:23;23.45;;;17.45;;
29202;SDS011;16245;51.170;4.884;2023-01-24T11:21:56;23.08;;;17.95;;
29202;SDS011;16245;51.170;4.884;2023-01-24T11:24:24;29.67;;;19.95;;
29202;SDS011;16245;51.170;4.884;2023-01-24T11:29:27;33.45;;;21.95;;
29202;SDS011;16245;51.170;4.884;2023-01-24T11:31:54;52.10;;;29.45;;
29202;SDS011;16245;51.170;4.884;2023-01-24T12:07:50;28.35;;;20.85;;
29202;SDS011;16245;51.170;4.884;2023-01-24T12:16:04;29.63;;;23.10;;
29202;SDS011;16245;51.170;4.884;2023-01-24T12:18:26;29.55;;;22.98;;
29202;SDS011;16245;51.170;4.884;2023-01-24T12:20:57;26.95;;;21.58;;
29202;SDS011;16245;51.170;4.884;2023-01-24T12:23:26;30.15;;;23.48;;
29202;SDS011;16245;51.170;4.884;2023-01-24T12:32:00;29.40;;;23.25;;
29202;SDS011;16245;51.170;4.884;2023-01-24T12:40:06;33.13;;;25.15;;
29202;SDS011;16245;51.170;4.884;2023-01-24T12:43:02;32.33;;;24.67;;
29202;SDS011;16245;51.170;4.884;2023-01-24T12:48:52;31.77;;;25.90;;
29202;SDS011;16245;51.170;4.884;2023-01-24T12:51:13;32.13;;;25.25;;
29202;SDS011;16245;51.170;4.884;2023-01-24T12:53:56;32.78;;;24.65;;
29202;SDS011;16245;51.170;4.884;2023-01-24T12:56:54;32.47;;;24.45;;
29202;SDS011;16245;51.170;4.884;2023-01-24T12:59:22;33.42;;;25.67;;
29202;SDS011;16245;51.170;4.884;2023-01-24T13:01:56;34.95;;;25.58;;
29202;SDS011;16245;51.170;4.884;2023-01-24T13:12:57;32.03;;;25.45;;
29202;SDS011;16245;51.170;4.884;2023-01-24T13:21:10;32.00;;;25.02;;
29202;SDS011;16245;51.170;4.884;2023-01-24T13:24:03;32.80;;;25.05;;
29202;SDS011;16245;51.170;4.884;2023-01-24T13:26:54;33.28;;;25.33;;
29202;SDS011;16245;51.170;4.884;2023-01-24T13:34:43;37.17;;;24.80;;
29202;SDS011;16245;51.170;4.884;2023-01-24T13:37:19;35.20;;;26.38;;
29202;SDS011;16245;51.170;4.884;2023-01-24T13:42:41;37.60;;;27.85;;
29202;SDS011;16245;51.170;4.884;2023-01-24T13:45:52;37.67;;;28.02;;
29202;SDS011;16245;51.170;4.884;2023-01-24T13:48:02;37.63;;;26.33;;
29202;SDS011;16245;51.170;4.884;2023-01-24T13:53:59;37.80;;;27.20;;
29202;SDS011;16245;51.170;4.884;2023-01-24T13:59:37;38.13;;;27.50;;
29202;SDS011;16245;51.170;4.884;2023-01-24T14:04:57;38.47;;;28.58;;
29202;SDS011;16245;51.170;4.884;2023-01-24T14:07:30;35.00;;;26.58;;
29202;SDS011;16245;51.170;4.884;2023-01-24T14:10:03;35.30;;;26.95;;
29202;SDS011;16245;51.170;4.884;2023-01-24T14:12:31;36.05;;;27.10;;
29202;SDS011;16245;51.170;4.884;2023-01-24T14:15:05;40.67;;;27.75;;
29202;SDS011;16245;51.170;4.884;2023-01-24T14:20:19;41.17;;;28.92;;
29202;SDS011;16245;51.170;4.884;2023-01-24T14:23:02;35.47;;;27.60;;
29202;SDS011;16245;51.170;4.884;2023-01-24T14:28:04;35.70;;;27.58;;
29202;SDS011;16245;51.170;4.884;2023-01-24T14:31:04;34.92;;;26.83;;
29202;SDS011;16245;51.170;4.884;2023-01-24T14:37:08;38.85;;;29.58;;
29202;SDS011;16245;51.170;4.884;2023-01-24T14:39:35;36.67;;;28.42;;
29202;SDS011;16245;51.170;4.884;2023-01-24T14:42:05;35.83;;;27.60;;
29202;SDS011;16245;51.170;4.884;2023-01-24T14:44:37;37.60;;;28.15;;
29202;SDS011;16245;51.170;4.884;2023-01-24T14:47:12;42.15;;;30.80;;
29202;SDS011;16245;51.170;4.884;2023-01-24T14:52:21;38.55;;;29.98;;
29202;SDS011;16245;51.170;4.884;2023-01-24T14:54:49;40.45;;;29.15;;
29202;SDS011;16245;51.170;4.884;2023-01-24T14:57:19;39.47;;;29.77;;
29202;SDS011;16245;51.170;4.884;2023-01-24T15:02:54;41.30;;;29.63;;
29202;SDS011;16245;51.170;4.884;2023-01-24T15:07:59;39.35;;;29.42;;
29202;SDS011;16245;51.170;4.884;2023-01-24T15:12:54;41.10;;;30.33;;
29202;SDS011;16245;51.170;4.884;2023-01-24T15:15:22;40.20;;;29.88;;
29202;SDS011;16245;51.170;4.884;2023-01-24T15:17:49;42.17;;;31.67;;
29202;SDS011;16245;51.170;4.884;2023-01-24T15:20:19;39.63;;;29.58;;
29202;SDS011;16245;51.170;4.884;2023-01-24T15:22:49;38.50;;;29.05;;
29202;SDS011;16245;51.170;4.884;2023-01-24T15:25:36;41.67;;;32.03;;
29202;SDS011;16245;51.170;4.884;2023-01-24T15:28:09;42.15;;;31.75;;
29202;SDS011;16245;51.170;4.884;2023-01-24T15:30:55;44.03;;;31.00;;
29202;SDS011;16245;51.170;4.884;2023-01-24T15:33:41;42.33;;;30.70;;
29202;SDS011;16245;51.170;4.884;2023-01-24T15:36:22;49.53;;;34.13;;
29202;SDS011;16245;51.170;4.884;2023-01-24T15:38:54;41.58;;;30.20;;
29202;SDS011;16245;51.170;4.884;2023-01-24T15:41:34;46.45;;;32.55;;
29202;SDS011;16245;51.170;4.884;2023-01-24T15:44:20;43.47;;;30.88;;
29202;SDS011;16245;51.170;4.884;2023-01-24T15:46:56;41.35;;;31.23;;
29202;SDS011;16245;51.170;4.884;2023-01-24T15:50:02;43.80;;;33.55;;
29202;SDS011;16245;51.170;4.884;2023-01-24T15:55:36;47.72;;;35.10;;
29202;SDS011;16245;51.170;4.884;2023-01-24T15:58:02;46.38;;;34.47;;
29202;SDS011;16245;51.170;4.884;2023-01-24T16:00:27;47.70;;;34.30;;
29202;SDS011;16245;51.170;4.884;2023-01-24T16:02:53;47.58;;;34.53;;
29202;SDS011;16245;51.170;4.884;2023-01-24T16:05:20;48.40;;;34.15;;
29202;SDS011;16245;51.170;4.884;2023-01-24T16:07:47;49.00;;;35.45;;
29202;SDS011;16245;51.170;4.884;2023-01-24T16:10:13;51.45;;;36.58;;
29202;SDS011;16245;51.170;4.884;2023-01-24T16:12:42;50.70;;;36.10;;
29202;SDS011;16245;51.170;4.884;2023-01-24T16:15:13;45.95;;;35.50;;
29202;SDS011;16245;51.170;4.884;2023-01-24T16:17:41;53.67;;;37.03;;
29202;SDS011;16245;51.170;4.884;2023-01-24T16:20:17;49.97;;;36.47;;
29202;SDS011;16245;51.170;4.884;2023-01-24T16:22:52;51.00;;;35.67;;
29202;SDS011;16245;51.170;4.884;2023-01-24T16:25:18;49.90;;;36.38;;
29202;SDS011;16245;51.170;4.884;2023-01-24T16:27:45;49.08;;;36.13;;
29202;SDS011;16245;51.170;4.884;2023-01-24T16:30:16;53.42;;;37.53;;
29202;SDS011;16245;51.170;4.884;2023-01-24T16:32:50;52.50;;;36.90;;
29202;SDS011;16245;51.170;4.884;2023-01-24T16:35:16;50.08;;;35.97;;
29202;SDS011;16245;51.170;4.884;2023-01-24T16:37:42;47.08;;;34.33;;
29202;SDS011;16245;51.170;4.884;2023-01-24T16:40:09;49.30;;;36.13;;
29202;SDS011;16245;51.170;4.884;2023-01-24T16:42:39;50.05;;;35.55;;
29202;SDS011;16245;51.170;4.884;2023-01-24T16:45:08;51.97;;;37.15;;
29202;SDS011;16245;51.170;4.884;2023-01-24T16:47:37;51.83;;;36.63;;
29202;SDS011;16245;51.170;4.884;2023-01-24T16:50:03;52.47;;;38.53;;
29202;SDS011;16245;51.170;4.884;2023-01-24T16:52:29;55.60;;;39.00;;
29202;SDS011;16245;51.170;4.884;2023-01-24T16:54:55;52.95;;;38.90;;
29202;SDS011;16245;51.170;4.884;2023-01-24T16:57:21;56.78;;;39.33;;
29202;SDS011;16245;51.170;4.884;2023-01-24T16:59:47;53.28;;;39.10;;
29202;SDS011;16245;51.170;4.884;2023-01-24T17:02:13;53.35;;;38.13;;
29202;SDS011;16245;51.170;4.884;2023-01-24T17:04:39;54.40;;;40.08;;
29202;SDS011;16245;51.170;4.884;2023-01-24T17:07:05;50.92;;;37.50;;
29202;SDS011;16245;51.170;4.884;2023-01-24T17:09:31;52.85;;;39.92;;
29202;SDS011;16245;51.170;4.884;2023-01-24T17:11:57;55.50;;;39.67;;
29202;SDS011;16245;51.170;4.884;2023-01-24T17:14:23;53.40;;;37.88;;